Almo, Idaho
Current Conditions -  °F | °C
As of 10:53 AM on Friday 31 Oct 2014 (Local Time) from KBYI Reporting Station
Clear Clear  
Wind Chill: 13°   Ceiling: Unl
Heat Index: 13°   Visibility: 10mi
Dew Point:   Wind: 3mph
Humidity: 43%   Direction: 100°E
Pressure: 29.9"   Gusts: NA
Location:  42.1°N, 113.64°W
Report Text: KBYI 311653Z AUTO 10003KT 10SM CLR 13/01 A2990 RMK AO2 SLP111 T01280006
Loading
Personal Weather Stations






























Interactive Weather Map
Tropical Storm Tracking
New forecast layout! Learn more

10-Day Weather Forecast

Advertisements
Track Severe Weather on mobile